LYBELYPG

Guest
Details From LYBE - Belgrade
To LYPG - Podgorica
Flight Number -
Tags generated
Created
Modified
Stats Distance 154 nm / 285 km
Max Altitude 10,700 ft / 3,261 m
Waypoints 3
Social Downloads 1
Likes 0
Share VATSIM

Download

Looking for another format? Having issues loading an existing format? Contact us
Advertisement - Login to hide

Notes

Basic altitude profile: - Ascent Rate: 500ft/min - Ascent Speed: 80kts - Cruise Altitude: 10000ft - Cruise Speed: 90kts - Descent Rate: 500ft/min - Descent Speed: 80kts Options: - Use NATs: yes - Use PACOTS: yes - Use low airways: yes - Use high airways: yes

Route

LYBE BEDAK LYPG

ID Type Via Altitude Latitude Longitude Leg Dist Tot Dist Heading (true) Name
O LYBE APT - 0 ft / 0 m 44.81843˚ 20.30921˚ - 0 nm - Belgrade
BEDAK FIX - 10,700 ft / 3,261 m 43.23972˚ 19.63836˚ 99 nm 99 nm 197° / 197° -
O LYPG APT - 0 ft / 0 m 42.36795˚ 19.27572˚ 54 nm 153 nm 197° / 197° Podgorica

Altitude Profile

Advertisement - Login to hide

LYBE

Details ICAO LYBE (BEG)
Name Belgrade
Region Serbia and Montenegro
Timezone Europe/Belgrade (UTC+2.0)
Stats Elevation 335 ft / 102 m (AMSL)
Location 44.818429° 20.309211°
Runways 1
Magnetic Variation 4.720° E

METAR

LYBE 260430Z VRB01KT CAVOK 19/17 Q1020 NOSIG

Decode

TAF

TAF LYBE 252300Z 2600/2624 29005KT CAVOK TX27/2613Z TN15/2603Z TEMPO 2602/2604 4000 BR PROB40 TEMPO 2612/2618 TSRA SCT030CB BKN040

Decode

Departure Runways

ID Width Length Bearing (true) Bearing (mag) Surface Threshold Offset Overrun Length
12 148 ft / 45 m 11,138 ft / 3,395 m 122.00° 117.28° Asphalt 1,000 ft / 305 m 0 ft / 0 m
30 148 ft / 45 m 11,138 ft / 3,395 m 302.03° 297.31° Asphalt 1,312 ft / 400 m 0 ft / 0 m

LYPG

Details ICAO LYPG (TGD)
Name Podgorica
Region Serbia and Montenegro
Timezone Europe/Podgorica (UTC+2.0)
Stats Elevation 141 ft / 43 m (AMSL)
Location 42.367947° 19.275721°
Runways 2
Magnetic Variation 4.296° E

METAR

LYPG 260430Z 34006KT CAVOK 21/13 Q1016 NOSIG

Decode

TAF

TAF LYPG 252300Z 2600/2624 36005KT 9999 FEW040 TX31/2614Z TN16/2603Z

Decode

Destination Runways

ID Width Length Bearing (true) Bearing (mag) Surface Threshold Offset Overrun Length
08 50 ft / 15 m 7,130 ft / 2,173 m 85.78° 81.48° Asphalt 200 ft / 61 m 0 ft / 0 m
18 148 ft / 45 m 8,214 ft / 2,504 m 184.30° 180.00° Asphalt 250 ft / 76 m 0 ft / 0 m
26 50 ft / 15 m 7,130 ft / 2,173 m 265.79° 261.49° Asphalt 200 ft / 61 m 0 ft / 0 m
36 148 ft / 45 m 8,214 ft / 2,504 m 4.30° 0.00° Asphalt 250 ft / 76 m 0 ft / 0 m

Approach Navaids

Runway Type Ident Frequency Range Bearing (true) Bearing (mag) Slope Elevation
36 Localiser YUI 109.90 MHz 25 nm / 46 km 4.32° 0.02° - 115 ft / 35 m (AMSL)
36 Glidescope YUI 109.90 MHz 25 nm / 46 km 4.32° 0.02° 3.20° 85 ft / 26 m (AMSL)

Popular Alternatives